Tiempo atmosférico en la estación meteorológica de Mutriku, Gipuzkoa (150 m.)



Fecha
DESCASC
Temp. máxima en grados centígrados (hora)
DESCASC
Temp. mínima en grados centígrados (hora)
DESCASC
Temp. media en grados centígrados
DESCASC
Racha de viento máxima en m/sg (hora)
DESCASC
Velocidad máxima media en intervalos de 10 minutos(hora)
DESCASC
Precipitaciones diarias en mm
DESCASC
Precipitaciones de 00:00 a 06:00 en mm
DESCASC
Precipitaciones de 06:00 a 12:00 en mm
DESCASC
Precipitaciones de 12:00 a 18:00 en mm
DESCASC
Precipitaciones de 18:00 a 24:00 en mm
DESCASC
05-04-2020 22.1 (16:00) 13.9 (07:40) 18 16.67 (02:10) 8.33 (07:20) 0 0 0 0 0
04-04-2020 22.6 (15:50) 7.6 (02:00) 15.1 15.83 (23:10) 6.67 (17:30) 0 0 0 0 0
03-04-2020 13.4 (14:40) 6.9 (06:10) 10.1 6.39 (23:10) 3.89 (23:10) 0 0 0 0 0
02-04-2020 13.4 (14:50) 8.3 (00:00) 10.8 5 (19:00) 3.33 (06:50) 0 0 0 0 0
01-04-2020 15.7 (14:00) 7.4 (00:00) 11.5 8.33 (14:00) 3.61 (14:00) 0.2 0 0 0 0.2
31-03-2020 7.5 (23:20) 2.3 (00:00) 4.9 7.5 (06:50) 4.72 (08:00) 6 0 1.2 4 0.8
30-03-2020 6.9 (14:30) 2.6 (00:00) 4.8 13.89 (06:50) 7.78 (06:50) 10.4 1 4.8 1.6 3
29-03-2020 13.2 (13:40) 6.3 (00:00) 9.8 12.22 (22:50) 6.11 (23:10) 0.2 0 0 0.2 0
28-03-2020 14.1 (13:40) 8.5 (00:00) 11.3 3.06 (14:00) 1.67 (01:20) 0 0 0 0 0
27-03-2020 13.4 (14:00) 6 (00:00) 9.7 5.28 (08:10) 3.89 (08:10) 0 0 0 0 0
26-03-2020 12.3 (15:20) 6.4 (00:00) 9.4 10.56 (03:30) 6.39 (03:00) 0 0 0 0 0
25-03-2020 14 (12:00) 8.1 (00:00) 11.1 9.17 (23:20) 6.11 (23:40) 0 0 0 0 0
24-03-2020 17.2 (12:30) 10 (00:00) 13.6 4.44 (13:20) 3.33 (13:30) 0 0 0 0 0
23-03-2020 15.7 (14:30) 10.3 (00:00) 13 5.28 (20:20) 3.61 (20:20) 0 0 0 0 0
22-03-2020 14.6 (14:20) 9.3 (06:00) 12 5.83 (13:10) 2.78 (13:00) 0 0 0 0 0
21-03-2020 18.5 (13:20) 12.9 (00:00) 15.7 11.67 (05:20) 5.28 (16:50) 0 0 0 0 0
20-03-2020 19.1 (13:20) 14.2 (00:00) 16.7 12.22 (04:40) 5.28 (20:20) 0 0 0 0 0
19-03-2020 20.1 (17:20) 10.3 (00:00) 15.2 8.06 (23:50) 3.61 (23:50) 0 0 0 0 0
18-03-2020 16 (16:20) 9.9 (00:00) 12.9 4.44 (04:40) 2.78 (04:40) 0 0 0 0 0
17-03-2020 12.8 (15:30) 10.1 (00:00) 11.5 4.72 (01:20) 2.22 (01:30) 0 0 0 0 0
16-03-2020 10.2 (14:20) 7 (00:00) 8.6 12.5 (07:30) 6.67 (07:50) 38.4 13.6 18.4 5.8 0.6
15-03-2020 17.8 (11:10) 8.2 (00:00) 13 11.11 (13:10) 6.67 (22:50) 9.2 0 0 0 9.2
14-03-2020 13.9 (15:10) 6.9 (00:00) 10.4 4.44 (18:20) 3.33 (05:50) 0 0 0 0 0
13-03-2020 12.3 (13:40) 7.5 (23:10) 9.9 6.67 (09:10) 3.89 (08:00) 4.6 3.8 0.8 0 0
12-03-2020 14.4 (14:10) 9.6 (00:00) 12 7.78 (19:20) 2.78 (19:20) 4.6 0 0 0 4.6
11-03-2020 15.8 (14:20) 9.1 (00:00) 12.5 4.72 (13:20) 3.06 (09:40) 0 0 0 0 0
10-03-2020 14.1 (14:20) 9.7 (00:00) 11.9 5.56 (01:50) 3.89 (01:50) 0 0 0 0 0

Gráficas

Temp. máximas Temp. mínimas Temp. medias Precipitaciones Rachas de viento máximas Velocidades máximas media en intervalos de 10 minutos

Datos horarios

Fecha y hora oficial Temperatura (ºC) Velocidad del viento (km/h) Dirección del viento Racha (km/h) Dirección de racha Precipitación (mm) Presión (hPa) Tendencia (hPa) Humedad (%)
2020-04-08 23:00:00 14.6 2 Oeste 6 Este 0 -- -- 76
2020-04-08 22:00:00 14.5 3 Sudeste 6 Sudeste 0 -- -- 76
2020-04-08 21:00:00 15.8 4 Este 11 Sudeste 0 -- -- 70
2020-04-08 20:00:00 18.1 5 Sudeste 10 Sudeste 0 -- -- 61
2020-04-08 19:00:00 18.2 2 Nordeste 12 Este 0 -- -- 63
2020-04-08 18:00:00 18.8 7 Este 14 Sudeste 0 -- -- 61
2020-04-08 17:00:00 19.5 10 Este 16 Este 0 -- -- 60
2020-04-08 16:00:00 19.3 11 Este 18 Este 0 -- -- 60
2020-04-08 15:00:00 18.6 8 Este 15 Este 0 -- -- 66
2020-04-08 14:00:00 17.8 9 Este 21 Este 0 -- -- 72
2020-04-08 13:00:00 17.5 14 Este 19 Este 0 -- -- 75
2020-04-08 12:00:00 17.5 10 Este 22 Este 0 -- -- 74
2020-04-08 11:00:00 16.9 11 Sudeste 16 Este 0 -- -- 76
2020-04-08 10:00:00 15.2 3 Sudeste 8 Sudeste 0 -- -- 83
2020-04-08 09:00:00 13 2 Sudoeste 4 Sudoeste 0 -- -- 89
2020-04-08 08:00:00 12.9 2 Nordeste 9 Sur 0 -- -- 84
2020-04-08 07:00:00 12 4 Sudeste 10 Este 0 -- -- 93
2020-04-08 06:00:00 12.2 4 Sudeste 9 Este 0 -- -- 91
2020-04-08 05:00:00 12.6 3 Este 6 Sudeste 0 -- -- 90
2020-04-08 04:00:00 12.6 0 Calma 12 Este 0 -- -- 90
2020-04-08 03:00:00 13.7 4 Sur 10 Sudeste 0 -- -- 84
2020-04-08 02:00:00 15.3 4 Noroeste 16 Sur 0 -- -- 72
2020-04-08 01:00:00 16.1 9 Sudoeste 19 Sur 0 -- -- 68
2020-04-08 00:00:00 16.1 9 Sudoeste 23 Sur 0 -- -- 68
2020-04-07 23:00:00 16.3 12 Sur 33 Oeste 0 -- -- 67
2020-04-07 22:00:00 16.2 9 Sudoeste 22 Oeste 0 -- -- 67
2020-04-07 21:00:00 16.8 7 Sudoeste 21 Sur 0 -- -- 66
2020-04-07 20:00:00 19.1 9 Sur 22 Sur 0 -- -- 59
2020-04-07 19:00:00 20 13 Sur 26 Sudeste 0 -- -- 57
2020-04-07 18:00:00 21.2 10 Sur 27 Sudoeste 0 -- -- 55
2020-04-07 17:00:00 22 4 Sudoeste 23 Oeste 0 -- -- 54
2020-04-07 16:00:00 21.7 7 Sudoeste 30 Este 0 -- -- 56
2020-04-07 15:00:00 21 8 Sudeste 22 Sur 0 -- -- 62
2020-04-07 14:00:00 19.1 5 Nordeste 17 Sudeste 0 -- -- 67
2020-04-07 13:00:00 16.2 4 Nordeste 16 Sudoeste 0 -- -- 77
2020-04-07 12:00:00 14.6 0 Calma 16 Sudeste 0 -- -- 86
2020-04-07 11:00:00 13.7 5 Sudeste 10 Sudeste 0.2 -- -- 94
2020-04-07 10:00:00 12.3 4 Sudeste 7 Sudeste 0.2 -- -- 97
2020-04-07 09:00:00 11.4 0 Calma 6 Oeste 0 -- -- 97
2020-04-07 08:00:00 11.1 3 Sudoeste 6 Sudoeste 0 -- -- 96
2020-04-07 07:00:00 11.3 0 Calma 5 Este 0 -- -- 96
2020-04-07 06:00:00 11.3 2 Sudeste 4 Sudeste 0 -- -- 96
2020-04-07 05:00:00 11.2 0 Calma 6 Este 0 -- -- 96
2020-04-07 04:00:00 10.9 0 Calma 2 Norte 0 -- -- 96
2020-04-07 03:00:00 10.9 0 Calma 2 Nordeste 0 -- -- 96
2020-04-07 02:00:00 11 0 Calma 5 Este 0 -- -- 96
2020-04-07 01:00:00 11 2 Sudeste 7 Sudeste 0.2 -- -- 96
2020-04-07 00:00:00 11 4 Sudeste 9 Sudoeste 0 -- -- 96
2020-04-06 23:00:00 10.9 6 Sudoeste 9 Sudoeste 0.4 -- -- 96
2020-04-06 22:00:00 11 3 Oeste 8 Oeste 1 -- -- 96
2020-04-06 21:00:00 11.1 6 Oeste 9 Oeste 1.2 -- -- 96
2020-04-06 20:00:00 11.3 3 Noroeste 9 Oeste 2.4 -- -- 95
2020-04-06 19:00:00 11.5 4 Oeste 12 Noroeste 0 -- -- 95
2020-04-06 18:00:00 11.5 9 Noroeste 17 Oeste 0 -- -- 94
2020-04-06 17:00:00 11.6 10 Noroeste 23 Noroeste 0 -- -- 94
2020-04-06 16:00:00 12.3 8 Noroeste 27 Noroeste 0 -- -- 93
2020-04-06 15:00:00 13 12 Oeste 27 Noroeste 0 -- -- 91
2020-04-06 14:00:00 13 9 Noroeste 17 Oeste 0.2 -- -- 87
2020-04-06 13:00:00 13.5 10 Noroeste 16 Oeste 0 -- -- 84
2020-04-06 12:00:00 14.3 3 Noroeste 9 Norte 0 -- -- 80
2020-04-06 11:00:00 14.2 3 Noroeste 7 Sudoeste 0 -- -- 69
2020-04-06 10:00:00 14.3 0 Calma 9 Sur 0 -- -- 64
2020-04-06 09:00:00 14 3 Sudeste 8 Sudoeste 0 -- -- 65
2020-04-06 08:00:00 14.6 3 Sudoeste 17 Sur 0.4 -- -- 65
2020-04-06 07:00:00 15.4 7 Este 23 Sur 0 -- -- 58
2020-04-06 06:00:00 15.3 5 Oeste 26 Oeste 0 -- -- 58
2020-04-06 05:00:00 15.6 12 Sudoeste 37 Sur 0 -- -- 59
2020-04-06 04:00:00 15.5 11 Sur 26 Sudoeste 0 -- -- 62
2020-04-06 03:00:00 16 4 Sur 17 Sur 0 -- -- 62
2020-04-06 02:00:00 16 9 Sur 29 Sudoeste 0 -- -- 64
2020-04-06 01:00:00 16.5 12 Sur 33 Sur 0.2 -- -- 60
2020-04-06 00:00:00 16.6 7 Sudoeste 25 Noroeste 0 -- -- 60
2020-04-05 23:00:00 17.8 5 Sudoeste 21 Sudoeste 0 -- -- 53
2020-04-05 22:00:00 18 8 Sudoeste 29 Sudeste 0 -- -- 51
2020-04-05 21:00:00 18.4 9 Sur 23 Sur 0 -- -- 50
2020-04-05 20:00:00 20.1 7 Sur 23 Sur 0 -- -- 46
2020-04-05 19:00:00 21 12 Sudeste 26 Sudeste 0 -- -- 46
2020-04-05 18:00:00 21.1 14 Sudeste 30 Sudeste 0 -- -- 45
2020-04-05 17:00:00 21 13 Sudeste 32 Sur 0 -- -- 45
2020-04-05 16:00:00 22.1 13 Sudoeste 47 Sur 0 -- -- 41
2020-04-05 15:00:00 21.1 18 Sudoeste 47 Oeste 0 -- -- 42
2020-04-05 14:00:00 20.9 21 Sudoeste 57 Oeste 0 -- -- 41
2020-04-05 13:00:00 18.8 18 Sudoeste 46 Sudoeste 0 -- -- 45
2020-04-05 12:00:00 17.1 17 Sur 39 Sur 0 -- -- 49
2020-04-05 11:00:00 15.1 8 Sur 34 Sudeste 0 -- -- 54
2020-04-05 10:00:00 14.2 14 Sur 40 Sur 0 -- -- 54
2020-04-05 09:00:00 14.1 22 Sur 52 Sur 0 -- -- 53
2020-04-05 08:00:00 13.9 25 Sur 56 Sur 0 -- -- 53
2020-04-05 07:00:00 14 21 Sur 53 Sur 0 -- -- 52
2020-04-05 06:00:00 14.3 24 Sur 53 Sur 0 -- -- 53
2020-04-05 05:00:00 14.5 22 Sur 58 Sur 0 -- -- 54
2020-04-05 04:00:00 15.2 20 Sur 56 Sur 0 -- -- 52
2020-04-05 03:00:00 15.9 23 Sur 60 Sur 0 -- -- 48
2020-04-05 02:00:00 16.2 22 Sur 51 Sur 0 -- -- 46
2020-04-05 01:00:00 16.5 10 Sudeste 46 Sur 0 -- -- 47
2020-04-05 00:00:00 17.1 12 Sudeste 57 Sur 0 -- -- 45
2020-04-04 23:00:00 17.7 16 Sudeste 40 Sur 0 -- -- 45
2020-04-04 22:00:00 18 16 Sudeste 46 Sur 0 -- -- 44
2020-04-04 21:00:00 18.4 15 Sur 47 Sur 0 -- -- 41
2020-04-04 20:00:00 19.8 12 Sudeste 35 Sudeste 0 -- -- 36
2020-04-04 19:00:00 21.5 15 Sudeste 29 Sudeste 0 -- -- 31
2020-04-04 18:00:00 22.1 18 Sudeste 45 Sudeste 0 -- -- 29
2020-04-04 17:00:00 22.3 22 Sudeste 37 Sudeste 0 -- -- 29
2020-04-04 16:00:00 22.6 18 Sudeste 36 Sur 0 -- -- 32
2020-04-04 15:00:00 22 16 Sudeste 40 Sudeste 0 -- -- 28
2020-04-04 14:00:00 21.2 13 Sudeste 45 Este 0 -- -- 31
2020-04-04 13:00:00 20.1 14 Sudeste 41 Este 0 -- -- 38
2020-04-04 12:00:00 18.7 10 Sudeste 24 Sur 0 -- -- 44
2020-04-04 11:00:00 16.5 4 Norte 24 Sur 0 -- -- 43
2020-04-04 10:00:00 15.1 6 Este 28 Sur 0 -- -- 45
2020-04-04 09:00:00 12.6 6 Sudeste 19 Sudoeste 0 -- -- 53
2020-04-04 08:00:00 10 3 Norte 9 Sudeste 0 -- -- 58
2020-04-04 07:00:00 9.5 6 Sur 17 Sudeste 0 -- -- 63
2020-04-04 06:00:00 8.8 5 Sur 8 Sur 0 -- -- 66
2020-04-04 05:00:00 8.1 5 Sudeste 10 Sur 0 -- -- 69
2020-04-04 04:00:00 8 5 Sur 7 Sudeste 0 -- -- 70
2020-04-04 03:00:00 8 3 Sur 4 Sudeste 0 -- -- 70
2020-04-04 02:00:00 7.6 2 Sudeste 10 Sudeste 0 -- -- 72
2020-04-04 01:00:00 8 6 Sudeste 21 Sudeste 0 -- -- 72
2020-04-04 00:00:00 8.2 9 Sudeste 23 Este 0 -- -- 74
2020-04-03 23:00:00 8.3 13 Este 20 Este 0 -- -- 76
2020-04-03 22:00:00 8.5 9 Sudeste 20 Este 0 -- -- 73
2020-04-03 21:00:00 9 13 Este 19 Sudeste 0 -- -- 70
2020-04-03 20:00:00 10.9 11 Este 17 Este 0 -- -- 63
2020-04-03 19:00:00 12.3 6 Este 18 Este 0 -- -- 60
2020-04-03 18:00:00 12.4 8 Este 20 Este 0 -- -- 61
2020-04-03 17:00:00 12.9 9 Este 22 Este 0 -- -- 65
2020-04-03 16:00:00 12.9 13 Este 22 Este 0 -- -- 63
2020-04-03 15:00:00 13.3 9 Nordeste 17 Nordeste 0 -- -- 64
2020-04-03 14:00:00 13.2 8 Nordeste 15 Nordeste 0 -- -- 63
2020-04-03 13:00:00 12.3 4 Norte 10 Nordeste 0 -- -- 62
2020-04-03 12:00:00 11.9 3 Noroeste 9 Nordeste 0 -- -- 64
2020-04-03 11:00:00 11.1 3 Norte 8 Norte 0 -- -- 64
2020-04-03 10:00:00 8.7 3 Oeste 10 Sudoeste 0 -- -- 71
2020-04-03 09:00:00 7.6 8 Sudoeste 12 Sudoeste 0 -- -- 73
2020-04-03 08:00:00 7.1 7 Sudoeste 12 Oeste 0 -- -- 73
2020-04-03 07:00:00 7.1 8 Oeste 14 Oeste 0 -- -- 73
2020-04-03 06:00:00 7.1 9 Oeste 13 Oeste 0 -- -- 73
2020-04-03 05:00:00 7.2 9 Oeste 16 Oeste 0 -- -- 74
2020-04-03 04:00:00 7.1 8 Oeste 18 Oeste 0 -- -- 76
2020-04-03 03:00:00 7.4 10 Oeste 18 Oeste 0 -- -- 76
2020-04-03 02:00:00 8 10 Oeste 15 Oeste 0 -- -- 72
2020-04-03 01:00:00 8.3 9 Oeste 16 Oeste 0 -- -- 70
2020-04-03 00:00:00 8.3 9 Oeste 18 Oeste 0 -- -- 71
2020-04-02 23:00:00 8.5 11 Oeste 18 Oeste 0 -- -- 72
2020-04-02 22:00:00 9.1 9 Oeste 17 Oeste 0 -- -- 74
2020-04-02 21:00:00 9.6 9 Noroeste 18 Noroeste 0 -- -- 73
2020-04-02 20:00:00 10.4 4 Noroeste 17 Noroeste 0 -- -- 78
2020-04-02 19:00:00 11.5 6 Noroeste 18 Noroeste 0 -- -- 78
2020-04-02 18:00:00 11.6 6 Noroeste 18 Noroeste 0 -- -- 79
2020-04-02 17:00:00 12.4 6 Noroeste 14 Noroeste 0 -- -- 79
2020-04-02 16:00:00 12.8 5 Noroeste 11 Noroeste 0 -- -- 82
2020-04-02 15:00:00 13.4 5 Noroeste 12 Noroeste 0 -- -- 80
2020-04-02 14:00:00 13 5 Noroeste 10 Norte 0 -- -- 85
2020-04-02 13:00:00 12.4 4 Noroeste 8 Norte 0 -- -- 84
2020-04-02 12:00:00 12.4 3 Norte 8 Norte 0 -- -- 90
2020-04-02 11:00:00 11.2 3 Noroeste 13 Oeste 0 -- -- 91
2020-04-02 10:00:00 11 8 Noroeste 17 Noroeste 0 -- -- 89
2020-04-02 09:00:00 11.1 10 Noroeste 17 Noroeste 0 -- -- 89
2020-04-02 08:00:00 11 7 Oeste 16 Sudoeste 0 -- -- 87
2020-04-02 07:00:00 11 10 Oeste 17 Oeste 0 -- -- 87
2020-04-02 06:00:00 10.7 6 Oeste 10 Noroeste 0 -- -- 80
2020-04-02 05:00:00 11.4 4 Oeste 12 Oeste 0 -- -- 75
2020-04-02 04:00:00 11.1 7 Sudoeste 12 Oeste 0 -- -- 77
2020-04-02 03:00:00 11 6 Sudoeste 10 Oeste 0 -- -- 79
2020-04-02 02:00:00 11.2 7 Sudoeste 13 Sudoeste 0 -- -- 78
2020-04-02 01:00:00 11.2 0 Calma 8 Oeste 0 -- -- 84
2020-04-02 00:00:00 11.8 7 Oeste 13 Sudoeste 0 -- -- 78
2020-04-01 23:00:00 11.6 9 Sudoeste 13 Sudoeste 0.2 -- -- 84
2020-04-01 22:00:00 11.8 7 Sudeste 16 Sudeste 0 -- -- 84
2020-04-01 21:00:00 12.1 6 Este 12 Este 0 -- -- 84
2020-04-01 20:00:00 12.7 4 Este 13 Sudeste 0 -- -- 82
2020-04-01 19:00:00 13.8 5 Este 13 Este 0 -- -- 78
2020-04-01 18:00:00 14.1 2 Norte 8 Sudeste 0 -- -- 78
2020-04-01 17:00:00 14.2 4 Nordeste 9 Sudeste 0 -- -- 76
2020-04-01 16:00:00 14 5 Este 11 Nordeste 0 -- -- 81
2020-04-01 15:00:00 14.6 3 Este 26 Sudeste 0 -- -- 72
2020-04-01 14:00:00 15.7 13 Sur 30 Sur 0 -- -- 61
2020-04-01 13:00:00 14 8 Este 14 Este 0 -- -- 73
2020-04-01 12:00:00 13 4 Sudeste 12 Este 0 -- -- 80
2020-04-01 11:00:00 12.2 5 Este 10 Sudeste 0 -- -- 84
2020-04-01 10:00:00 10.2 4 Sudeste 12 Este 0 -- -- 89
2020-04-01 09:00:00 9.2 3 Sudeste 8 Este 0 -- -- 91
2020-04-01 08:00:00 8.9 3 Sudeste 11 Este 0 -- -- 89
2020-04-01 07:00:00 8.8 7 Sudeste 10 Sudeste 0 -- -- 89
2020-04-01 06:00:00 9 8 Sudeste 11 Sudeste 0 -- -- 88
2020-04-01 05:00:00 8.2 6 Este 11 Este 0 -- -- 90
2020-04-01 04:00:00 9.1 4 Nordeste 9 Sudeste 0 -- -- 86
2020-04-01 03:00:00 8.7 7 Sudeste 10 Sudeste 0 -- -- 90
2020-04-01 02:00:00 7.5 3 Sudeste 14 Este 0 -- -- 92
2020-04-01 01:00:00 7.5 6 Este 10 Sudeste 0 -- -- 91
2020-04-01 00:00:00 7.5 2 Sur 10 Este 0 -- -- 91
2020-03-31 23:00:00 7.4 7 Este 11 Este 0 -- -- 92
2020-03-31 22:00:00 7.3 5 Este 10 Este 0 -- -- 92
2020-03-31 21:00:00 7.3 7 Este 21 Sudeste 0 -- -- 91
2020-03-31 20:00:00 6.9 9 Sudeste 18 Sudeste 0.4 -- -- 92
2020-03-31 19:00:00 6.8 5 Sudeste 13 Este 0.4 -- -- 91
2020-03-31 18:00:00 6.8 8 Sudeste 17 Sudeste 0 -- -- 90
2020-03-31 17:00:00 7 10 Este 17 Sudeste 0.6 -- -- 91
2020-03-31 16:00:00 7 5 Este 12 Este 1 -- -- 91
2020-03-31 15:00:00 6.5 5 Este 12 Este 1.2 -- -- 90
2020-03-31 14:00:00 6.3 9 Este 14 Este 0.4 -- -- 90
2020-03-31 13:00:00 5.8 9 Este 13 Sudeste 0.8 -- -- 91
2020-03-31 12:00:00 4.7 5 Sudeste 14 Sudeste 0 -- -- 90
2020-03-31 11:00:00 4.2 7 Sudeste 15 Sudeste 0.4 -- -- 90
2020-03-31 10:00:00 3.8 7 Sudeste 26 Sudeste 0 -- -- 91
2020-03-31 09:00:00 3.4 16 Sudeste 26 Sudeste 0.2 -- -- 90
2020-03-31 08:00:00 3.2 17 Sudeste 27 Este 0.6 -- -- 89
2020-03-31 07:00:00 3.7 11 Sudeste 27 Sudeste 0 -- -- 83
2020-03-31 06:00:00 3.5 6 Sudeste 12 Sudeste 0 -- -- 83
2020-03-31 05:00:00 3.3 3 Sur 6 Sur 0 -- -- 83
2020-03-31 04:00:00 3.2 4 Sur 9 Sudoeste 0 -- -- 84
2020-03-31 03:00:00 2.6 6 Sur 16 Sudoeste 0 -- -- 88
2020-03-31 02:00:00 2.6 10 Sudoeste 20 Sudoeste 0 -- -- 86
2020-03-31 01:00:00 2.7 11 Sudoeste 20 Sudoeste 0 -- -- 89
2020-03-31 00:00:00 2.7 14 Sudoeste 21 Sudoeste 0 -- -- 90
2020-03-30 23:00:00 3.2 15 Sudoeste 24 Sudoeste 0.2 -- -- 90
2020-03-30 22:00:00 3.4 13 Sudoeste 20 Sudoeste 0 -- -- 91
2020-03-30 21:00:00 3.3 13 Sudoeste 17 Sudoeste 0.8 -- -- 92
2020-03-30 20:00:00 2.9 11 Sudoeste 15 Sudoeste 1.6 -- -- 91
2020-03-30 19:00:00 3.9 7 Oeste 18 Oeste 0.4 -- -- 91
2020-03-30 18:00:00 4.1 8 Oeste 14 Noroeste 0.4 -- -- 88
2020-03-30 17:00:00 5.2 2 Norte 11 Oeste 0 -- -- 86
2020-03-30 16:00:00 4 7 Oeste 33 Oeste 0.6 -- -- 88
2020-03-30 15:00:00 6.6 3 Noroeste 12 Norte 0 -- -- 75
2020-03-30 14:00:00 6 5 Nordeste 13 Este 0.2 -- -- 80
2020-03-30 13:00:00 4.9 8 Este 22 Nordeste 0.4 -- -- 84
2020-03-30 12:00:00 4.2 10 Nordeste 44 Nordeste 0.8 -- -- 90
2020-03-30 11:00:00 4.4 5 Nordeste 23 Este 1.6 -- -- 80
2020-03-30 10:00:00 4.5 15 Este 38 Nordeste 2.2 -- -- 87
2020-03-30 09:00:00 3 7 Norte 38 Nordeste 0 -- -- 88
2020-03-30 08:00:00 4.5 12 Nordeste 40 Nordeste 0 -- -- 82
2020-03-30 07:00:00 4.6 18 Nordeste 50 Nordeste 0.2 -- -- 79
2020-03-30 06:00:00 4.9 18 Nordeste 42 Nordeste 0 -- -- 75
2020-03-30 05:00:00 4.1 8 Oeste 11 Oeste 0.6 -- -- 87
2020-03-30 04:00:00 4.3 3 Sur 14 Sur 0 -- -- 83
2020-03-30 03:00:00 5 4 Sur 21 Este 0 -- -- 82
2020-03-30 02:00:00 5.1 10 Este 39 Nordeste 0.2 -- -- 82
2020-03-30 01:00:00 5.8 19 Este 46 Nordeste 0.2 -- -- 82
2020-03-30 00:00:00 6.3 15 Este 37 Nordeste 0 -- -- 83
2020-03-29 23:00:00 6.8 21 Nordeste 44 Nordeste 0 -- -- 78
2020-03-29 22:00:00 7.7 10 Sudeste 30 Nordeste 0 -- -- 79
2020-03-29 21:00:00 8.2 7 Sur 18 Este 0 -- -- 79
2020-03-29 20:00:00 8.6 5 Noroeste 26 Norte 0 -- -- 82
2020-03-29 19:00:00 9.1 8 Noroeste 25 Noroeste 0 -- -- 83
2020-03-29 18:00:00 9.2 12 Noroeste 24 Norte 0 -- -- 84
2020-03-29 17:00:00 9.3 9 Noroeste 22 Noroeste 0 -- -- 86
2020-03-29 16:00:00 9.3 5 Oeste 21 Este 0.2 -- -- 89
2020-03-29 15:00:00 10.1 9 Sur 31 Oeste 0 -- -- 85
2020-03-29 14:00:00 12.4 7 Noroeste 19 Noroeste 0 -- -- 71
2020-03-29 13:00:00 12.6 10 Noroeste 27 Noroeste 0 -- -- 72
2020-03-29 12:00:00 12 9 Noroeste 18 Noroeste 0 -- -- 72
2020-03-29 11:00:00 11.2 8 Noroeste 15 Oeste 0 -- -- 76
2020-03-29 10:00:00 9.8 9 Oeste 13 Oeste 0 -- -- 81
2020-03-29 09:00:00 8.8 8 Oeste 12 Oeste 0 -- -- 83
2020-03-29 08:00:00 8.4 7 Oeste 10 Oeste 0 -- -- 83
2020-03-29 07:00:00 8.5 6 Oeste 8 Oeste 0 -- -- 83
2020-03-29 06:00:00 8.8 7 Sudoeste 9 Sudoeste 0 -- -- 81
2020-03-29 05:00:00 8.8 4 Oeste 9 Sudoeste 0 -- -- 79
2020-03-29 03:00:00 9.5 4 Oeste 6 Oeste 0 -- -- 74
2020-03-29 01:00:00 9.8 4 Sudoeste 6 Sudoeste 0 -- -- 72
2020-03-29 00:00:00 9.7 5 Sudoeste 6 Sudoeste 0 -- -- 74
2020-03-28 23:00:00 9.4 3 Sur 5 Sur 0 -- -- 76
2020-03-28 22:00:00 9.5 0 Calma 3 Sur 0 -- -- 76
2020-03-28 21:00:00 9.9 0 Calma 5 Nordeste 0 -- -- 75
2020-03-28 20:00:00 10.5 3 Este 6 Este 0 -- -- 73
2020-03-28 19:00:00 13 2 Sudeste 7 Nordeste 0 -- -- 64
2020-03-28 18:00:00 13.9 5 Este 9 Nordeste 0 -- -- 66
2020-03-28 17:00:00 13.2 4 Nordeste 8 Nordeste 0 -- -- 69
2020-03-28 16:00:00 13.5 5 Nordeste 9 Nordeste 0 -- -- 65
2020-03-28 15:00:00 13.8 4 Nordeste 10 Norte 0 -- -- 71
2020-03-28 14:00:00 13.8 4 Norte 11 Norte 0 -- -- 72
2020-03-28 13:00:00 13.3 5 Nordeste 9 Nordeste 0 -- -- 71
2020-03-28 12:00:00 12.7 5 Nordeste 9 Nordeste 0 -- -- 70
2020-03-28 11:00:00 12.9 3 Nordeste 9 Nordeste 0 -- -- 67
2020-03-28 10:00:00 12.2 2 Noroeste 9 Oeste 0 -- -- 69
2020-03-28 09:00:00 10.7 3 Oeste 4 Oeste 0 -- -- 68
2020-03-28 08:00:00 9.3 2 Sudoeste 5 Sudoeste 0 -- -- 71
2020-03-28 07:00:00 9 4 Sudoeste 8 Sudoeste 0 -- -- 69
2020-03-28 06:00:00 8.9 4 Sudoeste 7 Sudoeste 0 -- -- 73
2020-03-28 05:00:00 9 4 Sudoeste 6 Sur 0 -- -- 75
2020-03-28 04:00:00 9 3 Sudoeste 9 Sur 0 -- -- 74
2020-03-28 03:00:00 9 5 Sudoeste 8 Sudoeste 0 -- -- 74
2020-03-28 02:00:00 9.1 4 Sur 9 Sur 0 -- -- 73
2020-03-28 01:00:00 8.9 5 Sur 8 Sur 0 -- -- 76
2020-03-28 00:00:00 8.6 6 Sur 12 Sur 0 -- -- 77
2020-03-27 23:00:00 8.4 6 Sur 11 Sur 0 -- -- 76
2020-03-27 22:00:00 8.5 7 Sudeste 12 Sudeste 0 -- -- 75
2020-03-27 21:00:00 8.4 6 Sudeste 12 Sudeste 0 -- -- 74
2020-03-27 20:00:00 9 8 Este 14 Este 0 -- -- 72
2020-03-27 19:00:00 10 5 Este 15 Este 0 -- -- 70
2020-03-27 18:00:00 11.6 7 Este 19 Este 0 -- -- 65
2020-03-27 17:00:00 12.3 8 Nordeste 18 Nordeste 0 -- -- 64
2020-03-27 16:00:00 12.6 6 Nordeste 16 Nordeste 0 -- -- 63
2020-03-27 15:00:00 12.7 9 Nordeste 16 Nordeste 0 -- -- 60
2020-03-27 14:00:00 13.4 9 Este 15 Este 0 -- -- 60
2020-03-27 13:00:00 11.9 10 Nordeste 17 Nordeste 0 -- -- 64
2020-03-27 12:00:00 11.7 8 Nordeste 13 Nordeste 0 -- -- 61
2020-03-27 11:00:00 11.1 6 Nordeste 10 Nordeste 0 -- -- 59
2020-03-27 10:00:00 10.9 3 Nordeste 6 Nordeste 0 -- -- 58
2020-03-27 09:00:00 8.9 3 Sudoeste 19 Sudoeste 0 -- -- 58
2020-03-27 08:00:00 6.9 11 Sudoeste 17 Sudoeste 0 -- -- 60
2020-03-27 07:00:00 6.4 8 Sudoeste 13 Sudoeste 0 -- -- 58
2020-03-27 06:00:00 6.2 8 Sudoeste 11 Sudoeste 0 -- -- 61
2020-03-27 05:00:00 6.1 8 Sudoeste 14 Sudoeste 0 -- -- 63
2020-03-27 04:00:00 6.2 9 Sudoeste 13 Sudoeste 0 -- -- 63
2020-03-27 03:00:00 6.5 10 Sudoeste 15 Sudoeste 0 -- -- 62
2020-03-27 02:00:00 6.4 8 Sudoeste 14 Sudoeste 0 -- -- 63
2020-03-27 01:00:00 6.4 7 Sudoeste 13 Sudoeste 0 -- -- 63
2020-03-27 00:00:00 6.4 5 Oeste 9 Sudoeste 0 -- -- 64
2020-03-26 23:00:00 6.7 5 Sudoeste 11 Sudoeste 0 -- -- 62
2020-03-26 22:00:00 6.8 7 Sudoeste 11 Sudoeste 0 -- -- 60
2020-03-26 21:00:00 6.9 7 Oeste 13 Noroeste 0 -- -- 59
2020-03-26 20:00:00 7.5 6 Noroeste 16 Noroeste 0 -- -- 58
2020-03-26 19:00:00 8.9 6 Noroeste 18 Noroeste 0 -- -- 60
2020-03-26 18:00:00 9.9 9 Noroeste 22 Oeste 0 -- -- 55
2020-03-26 17:00:00 9.8 7 Norte 21 Norte 0 -- -- 58
2020-03-26 16:00:00 11.1 6 Norte 19 Nordeste 0 -- -- 52
2020-03-26 15:00:00 11.8 5 Noroeste 18 Noroeste 0 -- -- 50
2020-03-26 14:00:00 11.5 6 Noroeste 20 Norte 0 -- -- 49
2020-03-26 13:00:00 11 7 Norte 23 Noroeste 0 -- -- 48
2020-03-26 12:00:00 10 12 Noroeste 28 Noroeste 0 -- -- 55
2020-03-26 11:00:00 10.8 6 Oeste 36 Norte 0 -- -- 62
2020-03-26 10:00:00 10.3 19 Norte 37 Norte 0 -- -- 54
2020-03-26 09:00:00 10.1 15 Noroeste 34 Noroeste 0 -- -- 61
2020-03-26 08:00:00 10.3 11 Noroeste 30 Noroeste 0 -- -- 63
2020-03-26 07:00:00 10.3 7 Noroeste 26 Norte 0 -- -- 63
2020-03-26 06:00:00 10.2 9 Noroeste 30 Noroeste 0 -- -- 68
2020-03-26 05:00:00 9.6 21 Oeste 34 Oeste 0 -- -- 77
2020-03-26 04:00:00 9.6 18 Oeste 38 Oeste 0 -- -- 78
2020-03-26 03:00:00 9.4 23 Oeste 35 Oeste 0 -- -- 77
2020-03-26 02:00:00 9.5 21 Oeste 35 Oeste 0 -- -- 75
2020-03-26 01:00:00 9.4 20 Oeste 35 Oeste 0 -- -- 74
2020-03-26 00:00:00 9.3 20 Oeste 33 Oeste 0 -- -- 72
2020-03-25 23:00:00 8.9 21 Oeste 32 Oeste 0 -- -- 71
2020-03-25 22:00:00 8.5 21 Oeste 30 Sudoeste 0 -- -- 70
2020-03-25 21:00:00 8.2 14 Oeste 22 Sudoeste 0 -- -- 74
2020-03-25 20:00:00 8.9 13 Oeste 31 Noroeste 0 -- -- 72
2020-03-25 19:00:00 9.5 18 Noroeste 30 Noroeste 0 -- -- 71
2020-03-25 18:00:00 11 10 Noroeste 29 Noroeste 0 -- -- 73
2020-03-25 17:00:00 11.9 14 Noroeste 30 Noroeste 0 -- -- 68
2020-03-25 16:00:00 12.7 14 Noroeste 30 Noroeste 0 -- -- 66
2020-03-25 15:00:00 12.8 10 Noroeste 22 Noroeste 0 -- -- 68
2020-03-25 14:00:00 13.4 7 Noroeste 14 Sudoeste 0 -- -- 71
2020-03-25 13:00:00 13.3 4 Noroeste 28 Oeste 0 -- -- 77
2020-03-25 12:00:00 14 11 Noroeste 26 Noroeste 0 -- -- 83
2020-03-25 11:00:00 12.9 12 Noroeste 23 Noroeste 0 -- -- 85
2020-03-25 10:00:00 13.6 3 Noroeste 13 Noroeste 0 -- -- 72
2020-03-25 09:00:00 12.2 7 Oeste 11 Sudoeste 0 -- -- 76
2020-03-25 08:00:00 10.5 2 Oeste 8 Oeste 0 -- -- 81
2020-03-25 07:00:00 10.7 4 Oeste 11 Oeste 0 -- -- 78
2020-03-25 06:00:00 10.6 6 Oeste 10 Sudoeste 0 -- -- 79
2020-03-25 05:00:00 10.3 2 Oeste 10 Sudoeste 0 -- -- 82
2020-03-25 04:00:00 10.7 4 Sudoeste 9 Sudoeste 0 -- -- 80
2020-03-25 03:00:00 10.8 4 Sudoeste 9 Sudoeste 0 -- -- 80
2020-03-25 02:00:00 11.5 6 Sudoeste 11 Sudoeste 0 -- -- 82
2020-03-25 01:00:00 11.6 5 Sudoeste 10 Oeste 0 -- -- 81
2020-03-25 00:00:00 11.8 6 Oeste 9 Oeste 0 -- -- 79
2020-03-24 23:00:00 12.2 5 Oeste 7 Sudoeste 0 -- -- 78
2020-03-24 22:00:00 11.9 3 Sudoeste 6 Sudeste 0 -- -- 81
2020-03-24 21:00:00 11.8 3 Sudeste 8 Sudeste 0 -- -- 80
2020-03-24 20:00:00 11.8 4 Sudeste 8 Sudeste 0 -- -- 82
2020-03-24 19:00:00 14 2 Este 7 Norte 0 -- -- 81
2020-03-24 18:00:00 14.4 2 Norte 5 Norte 0 -- -- 81
2020-03-24 17:00:00 15.8 0 Calma 9 Este 0 -- -- 72
2020-03-24 16:00:00 15.9 6 Este 12 Sudeste 0 -- -- 79
2020-03-24 15:00:00 16.7 9 Este 13 Este 0 -- -- 77
2020-03-24 14:00:00 16.3 8 Este 16 Nordeste 0 -- -- 79
2020-03-24 13:00:00 16.7 9 Este 15 Este 0 -- -- 76
2020-03-24 12:00:00 16.9 7 Sudeste 13 Este 0 -- -- 74
2020-03-24 11:00:00 16.1 4 Este 8 Nordeste 0 -- -- 76
2020-03-24 10:00:00 14.2 0 Calma 9 Este 0 -- -- 77
2020-03-24 09:00:00 13.1 8 Sudeste 15 Este 0 -- -- 79
2020-03-24 08:00:00 12 4 Sur 6 Sur 0 -- -- 78
2020-03-24 07:00:00 11.3 3 Sudoeste 7 Sur 0 -- -- 82
2020-03-24 06:00:00 10.7 3 Sur 6 Oeste 0 -- -- 89
2020-03-24 05:00:00 10.4 2 Sudeste 4 Este 0 -- -- 92
2020-03-24 04:00:00 10.2 3 Este 7 Sudeste 0 -- -- 91
2020-03-24 03:00:00 10 4 Sur 6 Este 0 -- -- 92
2020-03-24 02:00:00 10.5 0 Calma 6 Oeste 0 -- -- 90
2020-03-24 01:00:00 10.5 3 Oeste 5 Oeste 0 -- -- 89
2020-03-24 00:00:00 10.7 3 Sudeste 8 Sudeste 0 -- -- 90
2020-03-23 23:00:00 11.3 4 Este 7 Sudeste 0 -- -- 89
2020-03-23 22:00:00 11.6 4 Este 12 Sudeste 0 -- -- 88
2020-03-23 21:00:00 11.8 10 Este 19 Este 0 -- -- 88
2020-03-23 20:00:00 12.2 5 Este 13 Este 0 -- -- 89
2020-03-23 19:00:00 12.3 9 Este 18 Este 0 -- -- 86
2020-03-23 18:00:00 13 5 Este 14 Nordeste 0 -- -- 83
2020-03-23 17:00:00 14.2 6 Este 16 Este 0 -- -- 77
2020-03-23 16:00:00 15.6 9 Este 18 Este 0 -- -- 73
2020-03-23 15:00:00 15.5 7 Este 13 Este 0 -- -- 72
2020-03-23 14:00:00 14.9 9 Este 12 Nordeste 0 -- -- 78
2020-03-23 13:00:00 14.2 8 Este 11 Nordeste 0 -- -- 77
2020-03-23 12:00:00 13.3 5 Nordeste 10 Este 0 -- -- 80
2020-03-23 11:00:00 12.8 4 Nordeste 6 Nordeste 0 -- -- 82
2020-03-23 10:00:00 11.9 3 Nordeste 4 Nordeste 0 -- -- 85
2020-03-23 09:00:00 11.2 3 Sudoeste 5 Oeste 0 -- -- 87
2020-03-23 08:00:00 10.9 3 Oeste 5 Oeste 0 -- -- 88
2020-03-23 07:00:00 10.5 2 Sudoeste 6 Oeste 0 -- -- 87
2020-03-23 06:00:00 10.6 0 Calma 6 Oeste 0 -- -- 88
2020-03-23 05:00:00 10.5 3 Sudoeste 12 Oeste 0 -- -- 88
2020-03-23 04:00:00 10.5 5 Oeste 8 Oeste 0 -- -- 87
2020-03-23 03:00:00 10.4 6 Oeste 10 Sudoeste 0 -- -- 88
2020-03-23 02:00:00 10.8 6 Sudoeste 13 Sudoeste 0 -- -- 86
2020-03-23 01:00:00 10.5 8 Sudoeste 14 Sudoeste 0 -- -- 89
2020-03-23 00:00:00 10.9 9 Sudoeste 13 Sudoeste 0 -- -- 90
2020-03-22 23:00:00 10.9 3 Oeste 13 Noroeste 0 -- -- 91
2020-03-22 22:00:00 11.3 6 Noroeste 12 Oeste 0 -- -- 90
2020-03-22 21:00:00 11.7 5 Noroeste 9 Noroeste 0 -- -- 88
2020-03-22 20:00:00 11.9 8 Oeste 11 Oeste 0 -- -- 87
2020-03-22 19:00:00 12.2 4 Noroeste 12 Noroeste 0 -- -- 88
2020-03-22 18:00:00 12.8 4 Noroeste 9 Oeste 0 -- -- 86
2020-03-22 17:00:00 13.3 2 Noroeste 9 Nordeste 0 -- -- 84
2020-03-22 16:00:00 13.7 4 Norte 12 Noroeste 0 -- -- 82
2020-03-22 15:00:00 14.1 5 Noroeste 14 Oeste 0 -- -- 81
2020-03-22 14:00:00 14.3 6 Noroeste 21 Noroeste 0 -- -- 80
2020-03-22 13:00:00 14 10 Noroeste 19 Noroeste 0 -- -- 80
2020-03-22 12:00:00 13.6 5 Nordeste 10 Nordeste 0 -- -- 76
2020-03-22 11:00:00 13.8 4 Nordeste 8 Nordeste 0 -- -- 72
2020-03-22 10:00:00 13.5 3 Sudeste 14 Nordeste 0 -- -- 77
2020-03-22 09:00:00 12 4 Este 9 Este 0 -- -- 83
2020-03-22 08:00:00 9.9 5 Sudeste 13 Sudeste 0 -- -- 86
2020-03-22 07:00:00 9.4 6 Sudeste 12 Este 0 -- -- 83
2020-03-22 06:00:00 9.3 4 Sur 7 Sudeste 0 -- -- 82
2020-03-22 05:00:00 9.9 3 Este 7 Sudeste 0 -- -- 80
2020-03-22 04:00:00 10.3 4 Sudeste 9 Este 0 -- -- 79
2020-03-22 03:00:00 11.2 3 Oeste 8 Norte 0 -- -- 73
2020-03-22 02:00:00 11.8 2 Oeste 17 Sur 0 -- -- 71
2020-03-22 01:00:00 13.9 6 Sur 16 Sudoeste 0 -- -- 52
2020-03-22 00:00:00 13.9 5 Sudoeste 10 Sudoeste 0 -- -- 49
2020-03-21 23:00:00 13.7 4 Sudoeste 14 Sudeste 0 -- -- 46
2020-03-21 22:00:00 13 6 Sur 11 Sudeste 0 -- -- 57
2020-03-21 21:00:00 13 3 Sur 9 Este 0 -- -- 68
2020-03-21 20:00:00 13.1 6 Sudeste 23 Este 0 -- -- 73
2020-03-21 19:00:00 14.1 16 Sudeste 24 Sudeste 0 -- -- 64
2020-03-21 18:00:00 16.2 13 Este 28 Este 0 -- -- 61
2020-03-21 17:00:00 16.7 17 Este 28 Este 0 -- -- 61
2020-03-21 16:00:00 17.5 14 Este 22 Este 0 -- -- 60
2020-03-21 15:00:00 17.7 14 Este 21 Este 0 -- -- 55
2020-03-21 14:00:00 17.3 16 Este 27 Este 0 -- -- 59
2020-03-21 13:00:00 18 5 Nordeste 11 Este 0 -- -- 52
2020-03-21 12:00:00 17.7 4 Nordeste 12 Sudeste 0 -- -- 47
2020-03-21 11:00:00 17 6 Nordeste 18 Sudoeste 0 -- -- 46
2020-03-21 10:00:00 15.5 9 Sudoeste 23 Sudeste 0 -- -- 48
2020-03-21 09:00:00 14.2 10 Sudoeste 36 Sur 0 -- -- 49
2020-03-21 08:00:00 13.2 9 Este 33 Oeste 0 -- -- 50
2020-03-21 07:00:00 13 8 Este 30 Sudoeste 0 -- -- 53
2020-03-21 06:00:00 13.6 9 Sudoeste 42 Sur 0 -- -- 54
2020-03-21 05:00:00 13.9 13 Sudoeste 42 Sur 0 -- -- 56
2020-03-21 04:00:00 14 10 Nordeste 29 Sur 0 -- -- 57
2020-03-21 03:00:00 14.2 10 Este 30 Sudeste 0 -- -- 57
2020-03-21 02:00:00 14 6 Sudeste 24 Este 0 -- -- 58
2020-03-21 01:00:00 14.7 7 Este 28 Sur 0 -- -- 57
2020-03-21 00:00:00 15 5 Sudeste 18 Sudeste 0 -- -- 57
2020-03-20 23:00:00 15.1 5 Norte 31 Sur 0 -- -- 57
2020-03-20 22:00:00 15.3 13 Sur 35 Sudeste 0 -- -- 56
2020-03-20 21:00:00 15.3 15 Sudeste 37 Sudeste 0 -- -- 56
2020-03-20 20:00:00 15.6 15 Sudeste 30 Sudeste 0 -- -- 55
2020-03-20 19:00:00 16.2 9 Sudeste 23 Sudeste 0 -- -- 52
2020-03-20 18:00:00 17.4 12 Sudeste 29 Sur 0 -- -- 47
2020-03-20 17:00:00 18.2 11 Sudeste 34 Sudeste 0 -- -- 44
2020-03-20 16:00:00 18.5 8 Sudeste 27 Este 0 -- -- 45
2020-03-20 15:00:00 18.3 11 Sudeste 43 Sur 0 -- -- 44
2020-03-20 14:00:00 18.9 18 Sudeste 39 Sudeste 0 -- -- 40
2020-03-20 13:00:00 18.6 6 Este 36 Sur 0 -- -- 38
2020-03-20 12:00:00 17.5 8 Sudeste 30 Sudeste 0 -- -- 38
2020-03-20 11:00:00 16.3 12 Sudeste 32 Sudeste 0 -- -- 38
2020-03-20 10:00:00 15.5 5 Sudeste 28 Sudoeste 0 -- -- 39
2020-03-20 09:00:00 14.8 6 Sudoeste 28 Sur 0 -- -- 43
2020-03-20 08:00:00 14.2 6 Sudeste 38 Sur 0 -- -- 43
2020-03-20 07:00:00 14.3 9 Sur 35 Sur 0 -- -- 42
2020-03-20 06:00:00 14.7 9 Norte 39 Sudeste 0 -- -- 40
2020-03-20 05:00:00 15 13 Sudeste 44 Sur 0 -- -- 41
2020-03-20 04:00:00 15 8 Este 43 Sudeste 0 -- -- 44
2020-03-20 03:00:00 15.5 11 Nordeste 41 Sur 0 -- -- 43
2020-03-20 02:00:00 15.4 12 Sur 32 Sudeste 0 -- -- 51
2020-03-20 01:00:00 15.2 9 Sudeste 25 Sudeste 0 -- -- 55
2020-03-20 00:00:00 15.1 13 Sudeste 29 Sudeste 0 -- -- 56
2020-03-19 23:00:00 15.7 9 Este 27 Sur 0 -- -- 54
2020-03-19 22:00:00 15.8 6 Sudeste 18 Sudeste 0 -- -- 47
2020-03-19 21:00:00 16.3 6 Sudeste 15 Sur 0 -- -- 40
2020-03-19 20:00:00 17.3 7 Sudeste 23 Sudeste 0 -- -- 42
2020-03-19 19:00:00 18.1 8 Sudeste 19 Sudeste 0 -- -- 43
2020-03-19 18:00:00 19.4 5 Sudeste 21 Sudeste 0 -- -- 43
2020-03-19 17:00:00 20 10 Sudeste 26 Sur 0 -- -- 45
2020-03-19 16:00:00 18.2 5 Sudeste 13 Sudeste 0 -- -- 59
2020-03-19 15:00:00 15.8 5 Sudeste 14 Sudeste 0 -- -- 81
2020-03-19 14:00:00 15.1 8 Sudeste 12 Sudeste 0 -- -- 81
2020-03-19 13:00:00 17.6 6 Este 12 Este 0 -- -- 74
2020-03-19 12:00:00 16.6 6 Sudeste 10 Este 0 -- -- 77
2020-03-19 11:00:00 13.6 0 Calma 10 Sur 0 -- -- 96
2020-03-19 10:00:00 12 3 Sur 7 Este 0 -- -- 97
2020-03-19 09:00:00 11 0 Calma 5 Nordeste 0 -- -- 96
2020-03-19 08:00:00 10.4 0 Calma 6 Este 0 -- -- 95
2020-03-19 07:00:00 10.6 0 Calma 6 Sudeste 0 -- -- 94
2020-03-19 06:00:00 10.7 3 Este 5 Este 0 -- -- 93
2020-03-19 05:00:00 10.9 0 Calma 4 Oeste 0 -- -- 92
2020-03-19 04:00:00 11.3 2 Oeste 5 Oeste 0 -- -- 92
2020-03-19 03:00:00 11.4 0 Calma 4 Este 0 -- -- 90
2020-03-19 02:00:00 11.5 0 Calma 4 Noroeste 0 -- -- 88
2020-03-19 01:00:00 11.8 2 Oeste 4 Este 0 -- -- 87
2020-03-19 00:00:00 12.1 3 Este 9 Oeste 0 -- -- 85
2020-03-18 23:00:00 12.4 3 Oeste 10 Oeste 0 -- -- 85
2020-03-18 22:00:00 12.9 5 Oeste 9 Oeste 0 -- -- 80
2020-03-18 21:00:00 13.1 3 Oeste 5 Oeste 0 -- -- 78
2020-03-18 20:00:00 13.2 2 Sudoeste 10 Sudeste 0 -- -- 77
2020-03-18 19:00:00 14.1 8 Este 12 Este 0 -- -- 72
2020-03-18 18:00:00 15.2 3 Sudeste 7 Sudeste 0 -- -- 73
2020-03-18 17:00:00 15.5 3 Este 5 Este 0 -- -- 69
2020-03-18 16:00:00 15.7 3 Nordeste 5 Nordeste 0 -- -- 66
2020-03-18 15:00:00 15.5 3 Nordeste 5 Nordeste 0 -- -- 72
2020-03-18 14:00:00 15.6 2 Nordeste 5 Este 0 -- -- 78
2020-03-18 13:00:00 14.6 2 Nordeste 5 Nordeste 0 -- -- 75
2020-03-18 12:00:00 14 0 Calma 6 Nordeste 0 -- -- 80
2020-03-18 11:00:00 14 0 Calma 3 Nordeste 0 -- -- 79
2020-03-18 10:00:00 13.1 0 Calma 6 Oeste 0 -- -- 83
2020-03-18 09:00:00 12.2 3 Este 6 Este 0 -- -- 83
2020-03-18 08:00:00 12 4 Sudeste 8 Oeste 0 -- -- 81
2020-03-18 07:00:00 11.9 3 Oeste 14 Sudeste 0 -- -- 83
2020-03-18 06:00:00 10.9 4 Sudeste 14 Sudeste 0 -- -- 91
2020-03-18 05:00:00 10.4 9 Este 16 Este 0 -- -- 93
2020-03-18 04:00:00 10.2 2 Sudeste 7 Sudeste 0 -- -- 95
2020-03-18 03:00:00 10.2 2 Oeste 4 Sudeste 0 -- -- 96
2020-03-18 02:00:00 10 2 Este 9 Sudeste 0 -- -- 96
2020-03-18 01:00:00 9.9 4 Este 9 Este 0 -- -- 96
2020-03-18 00:00:00 10.1 6 Este 8 Este 0 -- -- 95
2020-03-17 23:00:00 10.4 4 Este 9 Este 0 -- -- 95
2020-03-17 22:00:00 10.9 6 Sudeste 11 Este 0 -- -- 94
2020-03-17 21:00:00 11 6 Este 10 Sudeste 0 -- -- 94
2020-03-17 20:00:00 11.2 5 Este 8 Este 0 -- -- 93
2020-03-17 19:00:00 11.6 5 Este 8 Este 0 -- -- 91
2020-03-17 18:00:00 12.2 5 Este 10 Norte 0 -- -- 89
2020-03-17 17:00:00 12.7 6 Sudeste 10 Sudeste 0 -- -- 86
2020-03-17 16:00:00 12.8 3 Este 8 Nordeste 0 -- -- 86
2020-03-17 15:00:00 12.4 4 Este 6 Este 0 -- -- 86
2020-03-17 14:00:00 12.2 2 Nordeste 8 Este 0 -- -- 88
2020-03-17 13:00:00 12 4 Este 7 Sudeste 0 -- -- 91
2020-03-17 12:00:00 11.3 3 Sudeste 6 Este 0 -- -- 95
2020-03-17 11:00:00 11.2 4 Este 8 Nordeste 0 -- -- 96
2020-03-17 10:00:00 10.8 2 Sudeste 6 Norte 0 -- -- 96
2020-03-17 09:00:00 10.7 2 Noroeste 5 Oeste 0 -- -- 96
2020-03-17 08:00:00 10.6 0 Calma 5 Este 0 -- -- 96
2020-03-17 07:00:00 10.6 2 Este 9 Nordeste 0 -- -- 96
2020-03-17 06:00:00 10.6 4 Este 12 Nordeste 0 -- -- 96
2020-03-17 05:00:00 10.5 4 Nordeste 16 Nordeste 0 -- -- 96
2020-03-17 04:00:00 10.5 3 Noroeste 11 Noroeste 0 -- -- 96
2020-03-17 03:00:00 10.5 3 Oeste 14 Noroeste 0 -- -- 95
2020-03-17 02:00:00 10.5 3 Oeste 17 Norte 0 -- -- 95
2020-03-17 01:00:00 10.4 7 Noroeste 15 Oeste 0 -- -- 96
2020-03-17 00:00:00 10.2 9 Noroeste 18 Norte 0 -- -- 96
2020-03-16 23:00:00 10.1 10 Noroeste 22 Noroeste 0 -- -- 96
2020-03-16 22:00:00 9.8 10 Norte 26 Norte 0 -- -- 96
2020-03-16 21:00:00 9.7 7 Noroeste 25 Oeste 0 -- -- 96
2020-03-16 20:00:00 9.8 12 Noroeste 29 Noroeste 0 -- -- 96
2020-03-16 19:00:00 9.5 10 Noroeste 24 Nordeste 0.6 -- -- 97
2020-03-16 18:00:00 9.4 11 Nordeste 25 Nordeste 2.6 -- -- 97
2020-03-16 17:00:00 9.5 0 Calma 17 Norte 0.2 -- -- 97
2020-03-16 16:00:00 9.6 4 Oeste 9 Noroeste 0 -- -- 97
2020-03-16 15:00:00 10 0 Calma 14 Nordeste 0.4 -- -- 97
2020-03-16 14:00:00 9.7 6 Nordeste 16 Nordeste 0.8 -- -- 97
2020-03-16 13:00:00 9.6 5 Noroeste 17 Norte 1.8 -- -- 97
2020-03-16 12:00:00 9.5 5 Sur 27 Norte 1.6 -- -- 97
2020-03-16 11:00:00 9 15 Noroeste 33 Noroeste 2.4 -- -- 96
2020-03-16 10:00:00 8.7 16 Noroeste 34 Norte 3.2 -- -- 96
2020-03-16 09:00:00 8.5 12 Noroeste 37 Noroeste 3.4 -- -- 96
2020-03-16 08:00:00 7.9 23 Noroeste 45 Noroeste 4.6 -- -- 96
2020-03-16 07:00:00 7.3 21 Oeste 37 Oeste 3.2 -- -- 95
2020-03-16 06:00:00 7.1 19 Oeste 33 Oeste 3 -- -- 95
2020-03-16 05:00:00 7.2 22 Oeste 38 Oeste 3.4 -- -- 95
2020-03-16 04:00:00 7.5 19 Oeste 37 Noroeste 4 -- -- 95
2020-03-16 03:00:00 7.6 19 Oeste 31 Noroeste 2.6 -- -- 93
2020-03-16 02:00:00 7.8 18 Oeste 36 Oeste 0 -- -- 92
2020-03-16 01:00:00 8 21 Oeste 43 Oeste 0.6 -- -- 94
2020-03-16 00:00:00 8.2 17 Oeste 37 Oeste 1.8 -- -- 95
2020-03-15 23:00:00 8.3 19 Oeste 37 Oeste 0.8 -- -- 94
2020-03-15 22:00:00 9.2 9 Oeste 16 Oeste 1.2 -- -- 94
2020-03-15 21:00:00 9.3 10 Oeste 22 Oeste 1.8 -- -- 92
2020-03-15 20:00:00 9.5 15 Oeste 24 Sudoeste 3.2 -- -- 90
2020-03-15 19:00:00 10.8 10 Oeste 20 Oeste 0.4 -- -- 85
2020-03-15 18:00:00 11.5 5 Oeste 16 Oeste 0 -- -- 86
2020-03-15 17:00:00 11.5 8 Noroeste 21 Noroeste 0 -- -- 86
2020-03-15 16:00:00 11.8 9 Noroeste 26 Noroeste 0 -- -- 86
2020-03-15 15:00:00 12.6 11 Noroeste 33 Noroeste 0 -- -- 85
2020-03-15 14:00:00 12.8 18 Noroeste 40 Norte 0 -- -- 86
2020-03-15 13:00:00 12.9 14 Noroeste 35 Oeste 0 -- -- 86
2020-03-15 12:00:00 13.1 17 Noroeste 35 Oeste 0 -- -- 80
2020-03-15 11:00:00 17.6 19 Sudoeste 34 Sudoeste 0 -- -- 43
2020-03-15 10:00:00 16 9 Sudoeste 28 Sudoeste 0 -- -- 46
2020-03-15 09:00:00 14.7 6 Noroeste 39 Oeste 0 -- -- 46
2020-03-15 08:00:00 13.3 14 Oeste 36 Sudoeste 0 -- -- 44
2020-03-15 07:00:00 12.4 8 Oeste 22 Oeste 0 -- -- 45
2020-03-15 06:00:00 12 8 Sudoeste 23 Sur 0 -- -- 41
2020-03-15 05:00:00 9.1 3 Sudoeste 8 Sudoeste 0 -- -- 56
2020-03-15 04:00:00 8.9 0 Calma 5 Este 0 -- -- 67
2020-03-15 03:00:00 8.5 4 Sudeste 8 Sudeste 0 -- -- 71
2020-03-15 02:00:00 8.4 3 Sudeste 6 Sudeste 0 -- -- 75
2020-03-15 01:00:00 8.4 5 Sudeste 9 Sur 0 -- -- 76
2020-03-15 00:00:00 8.3 5 Sudeste 9 Sudeste 0 -- -- 76
2020-03-14 23:00:00 8.3 5 Sudeste 10 Sudeste 0 -- -- 78
2020-03-14 22:00:00 8.4 6 Sudeste 11 Sudeste 0 -- -- 81
2020-03-14 21:00:00 8.6 6 Sudeste 10 Este 0 -- -- 81
2020-03-14 20:00:00 9.2 5 Sudeste 10 Sudeste 0 -- -- 78
2020-03-14 19:00:00 11.1 7 Sudeste 16 Este 0 -- -- 70
2020-03-14 18:00:00 12.9 8 Sudeste 16 Este 0 -- -- 64
2020-03-14 17:00:00 13.8 7 Este 14 Este 0 -- -- 63
2020-03-14 16:00:00 13.9 8 Este 14 Este 0 -- -- 62
2020-03-14 15:00:00 13.8 7 Este 11 Sudeste 0 -- -- 60
2020-03-14 14:00:00 13.2 5 Este 9 Nordeste 0 -- -- 59
2020-03-14 13:00:00 12 5 Nordeste 10 Nordeste 0 -- -- 66
2020-03-14 12:00:00 11.5 6 Nordeste 9 Nordeste 0 -- -- 69
2020-03-14 11:00:00 11.3 3 Norte 8 Oeste 0 -- -- 66
2020-03-14 10:00:00 10.1 5 Oeste 9 Oeste 0 -- -- 64
2020-03-14 09:00:00 9.3 4 Sudoeste 12 Sudoeste 0 -- -- 66
2020-03-14 08:00:00 7.3 8 Sudoeste 15 Sudoeste 0 -- -- 70
2020-03-14 07:00:00 7.1 10 Sudoeste 16 Sudoeste 0 -- -- 74
2020-03-14 06:00:00 7 10 Sudoeste 15 Sudoeste 0 -- -- 77
2020-03-14 05:00:00 7.1 6 Sudoeste 10 Sudoeste 0 -- -- 79
2020-03-14 04:00:00 7.5 4 Sudoeste 8 Sudoeste 0 -- -- 78
2020-03-14 03:00:00 7.7 5 Sudoeste 7 Sudoeste 0 -- -- 79
2020-03-14 02:00:00 7.8 4 Sudoeste 7 Sudoeste 0 -- -- 78
2020-03-14 01:00:00 7.6 5 Oeste 8 Oeste 0 -- -- 80
2020-03-14 00:00:00 7.7 4 Sur 5 Sudoeste 0 -- -- 77
2020-03-13 23:00:00 7.6 3 Sudoeste 7 Sur 0 -- -- 76
2020-03-13 22:00:00 7.9 3 Sudoeste 7 Oeste 0 -- -- 74
2020-03-13 21:00:00 7.8 3 Sudeste 5 Sudeste 0 -- -- 74
2020-03-13 20:00:00 8.4 3 Sur 5 Sur 0 -- -- 71
2020-03-13 19:00:00 10.6 0 Calma 6 Nordeste 0 -- -- 66
2020-03-13 18:00:00 11.4 3 Norte 6 Nordeste 0 -- -- 65
2020-03-13 17:00:00 11.3 2 Norte 10 Nordeste 0 -- -- 66
2020-03-13 16:00:00 11.6 4 Nordeste 14 Nordeste 0 -- -- 69
2020-03-13 15:00:00 12 6 Nordeste 17 Este 0 -- -- 69
2020-03-13 14:00:00 12.1 10 Nordeste 20 Este 0 -- -- 71
2020-03-13 13:00:00 11.8 10 Nordeste 23 Este 0 -- -- 71
2020-03-13 12:00:00 11.4 13 Este 24 Este 0 -- -- 75
2020-03-13 11:00:00 10 12 Este 24 Este 0 -- -- 86
2020-03-13 10:00:00 9.3 6 Este 24 Este 0 -- -- 93
2020-03-13 09:00:00 8.8 8 Este 22 Este 0.2 -- -- 96
2020-03-13 08:00:00 9 14 Este 22 Este 0.4 -- -- 96
2020-03-13 07:00:00 9.1 9 Este 21 Este 0.2 -- -- 96
2020-03-13 06:00:00 9 6 Este 10 Este 0.8 -- -- 96
2020-03-13 05:00:00 9.3 5 Este 12 Sudeste 0.8 -- -- 95
2020-03-13 04:00:00 9.4 7 Sudeste 14 Este 1.4 -- -- 95
2020-03-13 03:00:00 9.7 6 Este 18 Este 0 -- -- 95
2020-03-13 02:00:00 9.7 9 Nordeste 23 Este 0.6 -- -- 95
2020-03-13 01:00:00 9.8 5 Este 15 Norte 0.2 -- -- 96
2020-03-13 00:00:00 9.9 8 Nordeste 15 Nordeste 1.4 -- -- 96
2020-03-12 23:00:00 9.7 3 Sudeste 10 Este 1.2 -- -- 96
2020-03-12 22:00:00 9.6 3 Nordeste 9 Noroeste 0.2 -- -- 96
2020-03-12 21:00:00 9.7 4 Norte 15 Norte 1 -- -- 96
2020-03-12 20:00:00 10.4 8 Noroeste 28 Noroeste 0.4 -- -- 95
2020-03-12 19:00:00 11.4 2 Norte 12 Norte 0.4 -- -- 94
2020-03-12 18:00:00 12.1 0 Calma 8 Oeste 0 -- -- 92
2020-03-12 17:00:00 12.7 0 Calma 5 Este 0 -- -- 88
2020-03-12 16:00:00 13.1 0 Calma 7 Sudeste 0 -- -- 86
2020-03-12 15:00:00 13.8 3 Este 10 Sudeste 0 -- -- 84
2020-03-12 14:00:00 14.2 3 Este 10 Este 0 -- -- 86
2020-03-12 13:00:00 13.8 6 Sudeste 9 Este 0 -- -- 86
2020-03-12 12:00:00 13.5 5 Este 9 Sudeste 0 -- -- 86
2020-03-12 11:00:00 12.9 3 Sudeste 7 Sur 0 -- -- 89
2020-03-12 10:00:00 12.3 4 Sur 8 Sur 0 -- -- 92
2020-03-12 09:00:00 11.5 4 Sur 12 Sudoeste 0 -- -- 94
2020-03-12 08:00:00 11.1 6 Sudoeste 11 Sudoeste 0 -- -- 95
2020-03-12 07:00:00 10.8 7 Sudoeste 11 Sudoeste 0 -- -- 95
2020-03-12 06:00:00 10.7 6 Sudoeste 10 Sudoeste 0 -- -- 95
2020-03-12 05:00:00 10.6 6 Sudoeste 12 Oeste 0 -- -- 95
2020-03-12 04:00:00 10.5 7 Oeste 11 Oeste 0 -- -- 95
2020-03-12 03:00:00 10.5 6 Oeste 13 Noroeste 0 -- -- 95
2020-03-12 02:00:00 10.6 8 Noroeste 14 Noroeste 0 -- -- 95
2020-03-12 01:00:00 10.5 6 Oeste 9 Noroeste 0 -- -- 94
2020-03-12 00:00:00 10.6 5 Oeste 8 Noroeste 0 -- -- 93
2020-03-11 23:00:00 10.8 3 Oeste 6 Sudoeste 0 -- -- 93
2020-03-11 22:00:00 10.6 5 Oeste 9 Oeste 0 -- -- 92
2020-03-11 21:00:00 11 5 Oeste 8 Oeste 0 -- -- 91
2020-03-11 20:00:00 11.5 3 Oeste 4 Oeste 0 -- -- 88
2020-03-11 19:00:00 13.3 2 Este 5 Sudeste 0 -- -- 81
2020-03-11 18:00:00 14.8 4 Este 9 Este 0 -- -- 77
2020-03-11 17:00:00 15.1 6 Este 12 Este 0 -- -- 76
2020-03-11 16:00:00 15.5 6 Este 14 Este 0 -- -- 75
2020-03-11 15:00:00 15.5 7 Este 14 Sudeste 0 -- -- 74
2020-03-11 14:00:00 15.4 9 Este 17 Este 0 -- -- 73
2020-03-11 13:00:00 14.8 9 Este 15 Este 0 -- -- 76
2020-03-11 12:00:00 14 8 Este 14 Este 0 -- -- 75
2020-03-11 11:00:00 14.5 8 Este 14 Este 0 -- -- 73
2020-03-11 10:00:00 14.1 8 Este 16 Sudeste 0 -- -- 77
2020-03-11 09:00:00 12.1 8 Sudeste 12 Este 0 -- -- 82
2020-03-11 08:00:00 9.6 6 Sudeste 8 Sudeste 0 -- -- 86
2020-03-11 07:00:00 9.5 4 Sudeste 6 Sudeste 0 -- -- 86
2020-03-11 06:00:00 9.2 4 Sudeste 8 Sudeste 0 -- -- 87
2020-03-11 05:00:00 9.4 0 Calma 2 Sudeste 0 -- -- 86
2020-03-11 04:00:00 10 0 Calma 4 Oeste 0 -- -- 85
2020-03-11 03:00:00 9.8 0 Calma 3 Sudoeste 0 -- -- 85
2020-03-11 02:00:00 10.1 3 Sudoeste 4 Sudoeste 0 -- -- 84
2020-03-11 01:00:00 9.9 2 Sudoeste 4 Sudoeste 0 -- -- 86
2020-03-11 00:00:00 10.2 2 Sudoeste 5 Sudoeste 0 -- -- 87
2020-03-10 23:00:00 10 4 Oeste 6 Sudoeste 0 -- -- 88
2020-03-10 22:00:00 10 0 Calma 3 Oeste 0 -- -- 87
2020-03-10 21:00:00 10.4 2 Oeste 8 Sudeste 0 -- -- 86
2020-03-10 20:00:00 10.5 6 Sur 9 Sur 0 -- -- 85
2020-03-10 19:00:00 12.4 3 Este 5 Sudeste 0 -- -- 78
2020-03-10 18:00:00 13.4 0 Calma 5 Noroeste 0 -- -- 74
2020-03-10 17:00:00 13.6 0 Calma 6 Noroeste 0 -- -- 77
2020-03-10 16:00:00 13.7 2 Norte 8 Norte 0 -- -- 74
2020-03-10 15:00:00 13.6 5 Nordeste 8 Nordeste 0 -- -- 71
2020-03-10 14:00:00 13.9 4 Nordeste 8 Nordeste 0 -- -- 68
2020-03-10 13:00:00 13.8 5 Nordeste 9 Este 0 -- -- 68
2020-03-10 12:00:00 13.5 8 Este 10 Este 0 -- -- 72
2020-03-10 11:00:00 12.3 2 Noroeste 5 Nordeste 0 -- -- 76
2020-03-10 10:00:00 11.8 0 Calma 8 Sur 0 -- -- 75
2020-03-10 09:00:00 10.6 5 Sur 9 Sur 0 -- -- 77
2020-03-10 08:00:00 10.1 2 Sur 6 Sudoeste 0 -- -- 75
2020-03-10 07:00:00 10.1 4 Sudoeste 10 Sudoeste 0 -- -- 75
2020-03-10 06:00:00 10 5 Sudoeste 14 Sudoeste 0 -- -- 76
2020-03-10 05:00:00 9.8 8 Sudoeste 19 Oeste 0 -- -- 78
2020-03-10 04:00:00 10 12 Sudoeste 18 Oeste 0 -- -- 76
2020-03-10 03:00:00 10 9 Sudoeste 20 Sudoeste 0 -- -- 76
2020-03-10 02:00:00 9.9 13 Sudoeste 20 Sudoeste 0 -- -- 77
2020-03-10 01:00:00 9.7 11 Sudoeste 20 Sudoeste 0 -- -- 80
2020-03-10 00:00:00 9.7 14 Sudoeste 20 Sudoeste 0 -- -- 81